Time;durP1;ratioP1;P1;durP2;ratioP2;P2;SDS_P1;SDS_P2;PMS_P1;PMS_P2;Temp;Humidity;BMP_temperature;BMP_pressure;BME280_temperature;BME280_humidity;BME280_pressure;Samples;Min_cycle;Max_cycle;Signal;HPM_P1;HPM_P2
2023/01/13 00:00:20;;;;;;;4.65;0.98;;;;;;;12.89;93.44;100564.00;5013858;28;20387;-66
2023/01/13 00:02:48;;;;;;;7.78;1.10;;;;;;;13.00;95.11;100566.06;4985958;28;20066;-66
2023/01/13 00:05:15;;;;;;;6.15;1.20;;;;;;;12.99;95.03;100581.03;4993041;28;20066;-66
2023/01/13 00:07:42;;;;;;;6.60;1.23;;;;;;;12.98;94.84;100606.25;4960295;29;20065;-66
2023/01/13 00:10:10;;;;;;;4.68;1.00;;;;;;;12.77;95.78;100605.34;4959785;28;20055;-66
2023/01/13 00:12:39;;;;;;;4.07;0.80;;;;;;;12.78;95.22;100593.97;4978525;28;20161;-66
2023/01/13 00:15:08;;;;;;;3.42;0.70;;;;;;;12.56;96.20;100596.16;4998221;28;20050;-66
2023/01/13 00:17:35;;;;;;;3.60;0.85;;;;;;;12.46;97.04;100583.50;4987503;28;20047;-67
2023/01/13 00:20:03;;;;;;;7.18;1.00;;;;;;;12.46;97.13;100580.75;4979066;28;20051;-67
2023/01/13 00:22:34;;;;;;;3.30;0.68;;;;;;;12.29;95.27;100569.75;4996384;28;20095;-67
2023/01/13 00:25:03;;;;;;;3.05;0.70;;;;;;;12.37;94.91;100575.25;4964961;28;20505;-67
2023/01/13 00:27:30;;;;;;;3.33;0.80;;;;;;;12.20;93.60;100577.25;4949085;28;20055;-67
2023/01/13 00:29:58;;;;;;;3.70;0.73;;;;;;;12.19;93.61;100568.13;4962274;28;20058;-65
2023/01/13 00:32:26;;;;;;;1.63;0.47;;;;;;;12.25;92.28;100569.59;4996061;28;20046;-66
2023/01/13 00:34:53;;;;;;;4.30;0.88;;;;;;;12.32;91.77;100574.63;4998316;28;20057;-66
2023/01/13 00:37:22;;;;;;;5.20;0.90;;;;;;;12.18;91.56;100565.72;5012368;28;20058;-67
2023/01/13 00:39:50;;;;;;;3.75;0.60;;;;;;;12.24;91.04;100570.72;4980576;28;20145;-66
2023/01/13 00:45:05;;;;;;;3.28;0.68;;;;;;;12.20;88.69;100569.75;4978015;28;20065;-66
2023/01/13 00:47:32;;;;;;;4.53;0.70;;;;;;;12.15;88.73;100556.13;4997280;28;20057;-67
2023/01/13 00:49:59;;;;;;;3.90;0.60;;;;;;;12.18;87.70;100560.19;5012069;28;20046;-66
2023/01/13 00:52:27;;;;;;;3.97;0.80;;;;;;;12.12;88.75;100561.47;4997102;28;20046;-67
2023/01/13 00:54:54;;;;;;;3.90;0.80;;;;;;;12.11;87.24;100546.06;4985354;28;20113;-66
2023/01/13 00:57:21;;;;;;;5.07;0.90;;;;;;;12.06;87.05;100546.25;4995606;28;20050;-66
2023/01/13 00:59:49;;;;;;;5.03;0.90;;;;;;;11.79;88.54;100557.63;4996460;28;20054;-66
2023/01/13 01:02:16;;;;;;;6.63;1.35;;;;;;;11.61;89.31;100558.72;4997031;28;20053;-67
2023/01/13 01:04:43;;;;;;;2.85;0.63;;;;;;;11.98;88.94;100571.88;4995834;28;20058;-67
2023/01/13 01:07:11;;;;;;;6.97;0.80;;;;;;;11.76;88.37;100574.81;4993673;28;20050;-67
2023/01/13 01:09:38;;;;;;;7.30;1.10;;;;;;;11.83;88.84;100572.41;4985483;28;20521;-66
2023/01/13 01:12:06;;;;;;;3.70;0.90;;;;;;;11.77;88.96;100566.22;4992816;28;20355;-67
2023/01/13 01:14:33;;;;;;;6.30;1.23;;;;;;;12.00;88.31;100564.91;4996777;28;20153;-66
2023/01/13 01:17:00;;;;;;;6.00;1.05;;;;;;;12.07;86.43;100562.47;4979045;28;20166;-67
2023/01/13 01:19:28;;;;;;;3.30;0.52;;;;;;;11.97;86.65;100562.00;5012125;28;20054;-66
2023/01/13 01:21:55;;;;;;;3.45;0.68;;;;;;;11.92;88.03;100554.72;4994979;28;20053;-66
2023/01/13 01:24:23;;;;;;;3.72;0.75;;;;;;;12.24;86.82;100553.34;4984747;28;20057;-66
2023/01/13 01:26:50;;;;;;;3.65;0.68;;;;;;;12.30;85.94;100552.84;4990360;28;20055;-67
2023/01/13 01:29:17;;;;;;;5.22;0.80;;;;;;;12.48;83.78;100555.56;5011627;28;20050;-66
2023/01/13 01:31:45;;;;;;;6.80;1.08;;;;;;;12.24;82.95;100564.38;4996116;28;20058;-67
2023/01/13 01:34:12;;;;;;;5.10;1.40;;;;;;;12.16;84.42;100556.94;4997093;28;20046;-66
2023/01/13 01:36:40;;;;;;;6.07;0.82;;;;;;;12.22;83.37;100550.13;5011213;28;20050;-67
2023/01/13 01:39:08;;;;;;;5.45;0.85;;;;;;;12.00;85.46;100551.13;5005132;28;20055;-65
2023/01/13 01:41:36;;;;;;;6.57;1.10;;;;;;;12.02;84.91;100554.38;4987772;28;20057;-66
2023/01/13 01:44:40;;;;;;;6.55;1.48;;;;;;;11.92;84.98;100548.38;4995763;28;20061;-66
2023/01/13 01:47:10;;;;;;;7.07;1.20;;;;;;;11.93;84.09;100547.22;4996295;28;20077;-67
2023/01/13 01:49:38;;;;;;;7.88;1.30;;;;;;;11.94;84.49;100543.34;4990381;28;20055;-66
2023/01/13 01:52:11;;;;;;;10.80;1.58;;;;;;;11.95;83.96;100540.25;4992232;28;20061;-66
2023/01/13 01:54:44;;;;;;;6.70;1.08;;;;;;;11.94;83.62;100546.09;4995350;28;20042;-66
2023/01/13 01:57:16;;;;;;;7.38;1.23;;;;;;;11.83;83.10;100556.66;4994871;28;20046;-66
2023/01/13 01:59:44;;;;;;;10.32;1.70;;;;;;;11.90;83.29;100550.63;4994969;28;20406;-67
2023/01/13 02:02:11;;;;;;;10.25;1.90;;;;;;;11.84;81.79;100551.94;4978375;28;20054;-66
2023/01/13 02:04:41;;;;;;;11.27;1.70;;;;;;;12.01;82.27;100554.69;4976894;28;20518;-66
2023/01/13 02:07:08;;;;;;;9.07;1.63;;;;;;;11.86;81.25;100567.03;4993325;28;20046;-66
2023/01/13 02:09:36;;;;;;;7.72;1.50;;;;;;;11.69;82.30;100563.47;4995409;28;20085;-66
2023/01/13 02:14:49;;;;;;;9.10;1.60;;;;;;;11.78;82.56;100573.38;4996771;28;20065;-66
2023/01/13 02:17:19;;;;;;;9.55;1.60;;;;;;;12.05;81.11;100569.44;5008555;28;20046;-66
2023/01/13 02:20:18;;;;;;;12.25;1.98;;;;;;;11.72;81.69;100569.16;4976826;28;20050;-66
2023/01/13 02:26:20;;;;;;;10.02;1.60;;;;;;;11.71;82.72;100575.00;4972982;28;20054;-67
2023/01/13 02:32:05;;;;;;;9.23;1.40;;;;;;;11.66;81.86;100575.16;4991858;28;20046;-66
2023/01/13 02:34:39;;;;;;;15.80;1.65;;;;;;;11.51;82.69;100581.91;4975604;28;20066;-66
2023/01/13 02:37:19;;;;;;;12.05;2.17;;;;;;;11.46;83.40;100572.97;4997627;28;20051;-66
2023/01/13 02:39:59;;;;;;;6.50;1.08;;;;;;;11.49;83.31;100580.63;4975589;28;20047;-67
2023/01/13 02:45:22;;;;;;;12.25;2.10;;;;;;;11.50;83.71;100577.56;4987365;28;20144;-65
2023/01/13 02:47:54;;;;;;;10.30;1.38;;;;;;;11.31;84.24;100590.81;4957228;28;20051;-66
2023/01/13 02:50:26;;;;;;;12.10;1.88;;;;;;;11.25;84.92;100583.81;4989804;28;20069;-67
2023/01/13 02:52:57;;;;;;;10.30;1.75;;;;;;;11.43;84.50;100581.91;4962758;28;20058;-65
2023/01/13 02:55:31;;;;;;;10.13;1.60;;;;;;;11.32;84.04;100593.25;4977689;28;20532;-67
2023/01/13 02:58:00;;;;;;;8.55;1.67;;;;;;;11.21;84.31;100604.88;4982768;28;20383;-66
2023/01/13 03:00:28;;;;;;;13.55;1.85;;;;;;;11.52;82.99;100602.03;4960707;28;20058;-65
2023/01/13 03:02:55;;;;;;;12.20;2.00;;;;;;;11.63;82.81;100603.38;4995979;28;20058;-67
2023/01/13 03:05:24;;;;;;;12.98;1.60;;;;;;;11.47;82.87;100600.28;4993400;28;20051;-66
2023/01/13 03:08:03;;;;;;;13.43;2.35;;;;;;;11.46;83.17;100608.84;4978896;28;20057;-66
2023/01/13 03:10:35;;;;;;;10.30;2.55;;;;;;;11.40;82.52;100618.41;5010607;28;20065;-66
2023/01/13 03:13:13;;;;;;;11.52;2.38;;;;;;;11.29;82.47;100610.44;5004745;28;20058;-65
2023/01/13 03:15:41;;;;;;;9.90;1.75;;;;;;;11.32;82.85;100614.50;4998488;28;20046;-65
2023/01/13 03:18:39;;;;;;;12.90;1.80;;;;;;;11.39;82.45;100606.56;4995389;28;20050;-65
2023/01/13 03:21:25;;;;;;;11.68;2.22;;;;;;;11.69;80.64;100619.47;4988314;28;20054;-65
2023/01/13 03:23:55;;;;;;;11.90;1.70;;;;;;;11.51;81.95;100606.75;5000396;28;20566;-65
2023/01/13 03:26:32;;;;;;;12.27;1.52;;;;;;;11.46;82.05;100606.91;4995128;28;20069;-65
2023/01/13 03:29:08;;;;;;;11.95;2.03;;;;;;;11.70;80.57;100615.56;4999835;28;20054;-56
2023/01/13 03:31:39;;;;;;;11.35;1.90;;;;;;;11.51;81.00;100615.00;5006503;28;20047;-55
2023/01/13 03:34:12;;;;;;;13.65;2.28;;;;;;;11.47;81.09;100616.81;4979495;28;20056;-57
2023/01/13 03:36:40;;;;;;;12.48;1.83;;;;;;;11.44;81.30;100625.72;4989370;28;20042;-58
2023/01/13 03:39:13;;;;;;;15.75;2.13;;;;;;;11.24;81.50;100629.88;4998933;28;20046;-57
2023/01/13 03:41:44;;;;;;;9.98;1.95;;;;;;;11.37;81.05;100627.34;4998609;28;20054;-56
2023/01/13 03:44:22;;;;;;;12.68;2.03;;;;;;;11.36;81.35;100629.28;4998173;28;20478;-57
2023/01/13 03:47:06;;;;;;;12.05;1.60;;;;;;;11.35;81.51;100625.69;5001521;28;20063;-59
2023/01/13 03:49:53;;;;;;;10.02;1.58;;;;;;;11.38;80.98;100623.44;4994195;28;20066;-55
2023/01/13 03:52:36;;;;;;;10.88;1.90;;;;;;;11.18;80.46;100625.66;4996543;28;20059;-59
2023/01/13 03:55:08;;;;;;;13.82;2.50;;;;;;;11.21;81.34;100627.75;4997507;28;20062;-54
2023/01/13 03:57:45;;;;;;;16.55;2.45;;;;;;;11.52;80.40;100611.16;4997268;28;20053;-55
2023/01/13 04:00:13;;;;;;;8.65;1.58;;;;;;;11.52;80.22;100613.91;4997394;28;20042;-57
2023/01/13 04:02:51;;;;;;;10.20;2.35;;;;;;;11.53;79.54;100611.94;4961700;28;20066;-54
2023/01/13 04:05:19;;;;;;;16.10;1.60;;;;;;;11.42;79.63;100622.47;4979546;28;20059;-56
2023/01/13 04:08:05;;;;;;;8.40;1.65;;;;;;;11.56;79.29;100625.88;4996843;28;20441;-58
2023/01/13 04:10:44;;;;;;;8.35;1.25;;;;;;;11.38;79.23;100623.44;4997907;28;20513;-54
2023/01/13 04:13:13;;;;;;;15.23;1.50;;;;;;;11.30;79.29;100627.78;4981120;28;20422;-55
2023/01/13 04:15:44;;;;;;;9.63;1.53;;;;;;;11.54;78.71;100633.66;4980454;28;20069;-58
2023/01/13 04:18:16;;;;;;;11.65;2.20;;;;;;;11.20;79.13;100639.94;4979606;28;20059;-58
2023/01/13 04:20:45;;;;;;;10.27;1.40;;;;;;;11.08;79.93;100647.19;4992478;28;20055;-56
2023/01/13 04:23:13;;;;;;;14.77;1.52;;;;;;;11.27;79.58;100648.56;4960699;28;20059;-54
2023/01/13 04:25:42;;;;;;;11.18;1.75;;;;;;;11.25;79.06;100650.81;4964534;28;20085;-55
2023/01/13 04:28:10;;;;;;;10.35;1.58;;;;;;;11.11;78.98;100641.84;4998127;28;20489;-58
2023/01/13 04:30:38;;;;;;;9.07;1.90;;;;;;;11.27;79.32;100659.59;5012290;28;20071;-53
2023/01/13 04:33:06;;;;;;;10.57;1.75;;;;;;;11.27;78.46;100658.75;4981197;28;20046;-55
2023/01/13 04:35:34;;;;;;;8.55;1.63;;;;;;;11.20;78.01;100663.94;4994818;28;20054;-58
2023/01/13 04:38:04;;;;;;;7.88;1.40;;;;;;;11.34;79.09;100670.97;4997817;28;20058;-50
2023/01/13 04:40:31;;;;;;;9.48;1.80;;;;;;;11.43;78.19;100675.69;4997927;28;20734;-56
2023/01/13 04:42:59;;;;;;;13.10;1.70;;;;;;;11.20;77.15;100672.19;4998031;28;20058;-58
2023/01/13 04:45:26;;;;;;;13.57;2.10;;;;;;;11.05;77.15;100676.19;4995748;28;20070;-55
2023/01/13 04:47:53;;;;;;;9.27;1.50;;;;;;;11.08;77.44;100678.31;4997489;28;20043;-57
2023/01/13 04:50:21;;;;;;;12.00;2.08;;;;;;;11.20;77.18;100673.00;4993690;28;20603;-54
2023/01/13 04:52:49;;;;;;;9.50;1.70;;;;;;;11.25;76.68;100680.31;5028165;28;20061;-51
2023/01/13 04:55:17;;;;;;;9.10;1.33;;;;;;;11.21;75.68;100690.34;4983562;28;20066;-54
2023/01/13 04:57:45;;;;;;;6.85;1.33;;;;;;;11.25;75.36;100689.41;4980415;28;20050;-58
2023/01/13 05:00:14;;;;;;;10.50;1.77;;;;;;;11.16;76.03;100694.06;4996097;28;20042;-58
2023/01/13 05:02:42;;;;;;;7.25;1.35;;;;;;;11.18;76.71;100689.06;4980250;28;20414;-58
2023/01/13 05:05:09;;;;;;;9.88;1.45;;;;;;;11.16;75.99;100691.31;4996123;28;20418;-61
2023/01/13 05:07:37;;;;;;;12.40;1.85;;;;;;;11.17;75.61;100695.72;4996860;28;20061;-53
2023/01/13 05:10:05;;;;;;;14.68;1.58;;;;;;;11.06;75.90;100697.13;4982555;28;20043;-56
2023/01/13 05:18:04;;;;;;;12.13;2.03;;;;;;;10.79;76.18;100707.50;4997311;28;20121;-59
2023/01/13 05:20:31;;;;;;;12.40;2.08;;;;;;;10.72;76.78;100710.69;4996843;28;20057;-53
2023/01/13 05:25:46;;;;;;;13.77;1.70;;;;;;;10.74;77.83;100708.44;4964034;28;20062;-51
2023/01/13 05:28:13;;;;;;;15.25;2.45;;;;;;;10.86;77.33;100714.19;4997527;28;20050;-54
2023/01/13 05:30:43;;;;;;;13.52;2.50;;;;;;;10.85;78.47;100723.59;4996746;28;20050;-57
2023/01/13 05:33:12;;;;;;;12.38;1.73;;;;;;;10.85;76.85;100736.53;4997205;28;20054;-55
2023/01/13 05:35:41;;;;;;;14.32;2.45;;;;;;;10.87;77.08;100740.63;4994233;28;20053;-56
2023/01/13 05:38:09;;;;;;;13.32;1.90;;;;;;;10.83;76.62;100736.84;4961018;28;20061;-58
2023/01/13 05:43:26;;;;;;;15.20;2.22;;;;;;;10.83;76.27;100736.84;4997087;28;20054;-56
2023/01/13 05:46:02;;;;;;;11.77;2.22;;;;;;;10.77;76.27;100742.81;5011552;28;20046;-56
2023/01/13 05:48:35;;;;;;;12.02;2.13;;;;;;;10.62;76.68;100737.66;4979798;28;20057;-52
2023/01/13 05:51:04;;;;;;;13.02;2.00;;;;;;;10.78;75.78;100748.00;4972131;28;20043;-55
2023/01/13 05:53:31;;;;;;;13.73;2.20;;;;;;;10.75;76.44;100745.06;4976961;28;20066;-56
2023/01/13 05:55:59;;;;;;;11.75;2.08;;;;;;;10.87;75.75;100759.09;4981942;28;20434;-55
2023/01/13 05:58:27;;;;;;;17.13;2.22;;;;;;;10.84;75.52;100768.00;4995201;28;20050;-55
2023/01/13 06:01:02;;;;;;;16.10;2.63;;;;;;;10.74;75.26;100765.50;4982163;28;20054;-57
2023/01/13 06:03:30;;;;;;;12.88;2.22;;;;;;;10.67;76.22;100765.91;4996311;28;20057;-57
2023/01/13 06:05:58;;;;;;;12.82;2.03;;;;;;;10.80;75.50;100762.28;4994385;28;20046;-59
2023/01/13 06:08:25;;;;;;;17.65;2.58;;;;;;;10.62;75.57;100770.72;4996394;28;20046;-58
2023/01/13 06:10:53;;;;;;;12.77;1.98;;;;;;;10.80;75.07;100770.56;4985808;28;20046;-57
2023/01/13 06:13:20;;;;;;;15.95;2.60;;;;;;;10.73;75.27;100761.09;4996186;28;20050;-58
2023/01/13 06:15:47;;;;;;;21.77;2.35;;;;;;;10.83;74.48;100769.91;4995902;28;20394;-56
2023/01/13 06:18:15;;;;;;;15.00;2.42;;;;;;;10.61;74.77;100783.69;4996705;28;20444;-54
2023/01/13 06:20:42;;;;;;;20.20;2.90;;;;;;;10.63;75.44;100788.91;4977863;28;20062;-56
2023/01/13 06:23:10;;;;;;;16.40;2.92;;;;;;;10.56;75.46;100800.34;4986458;28;20047;-57
2023/01/13 06:26:02;;;;;;;14.38;2.28;;;;;;;10.38;76.48;100795.81;4979645;28;20046;-57
2023/01/13 06:28:29;;;;;;;16.38;2.50;;;;;;;10.50;75.63;100803.50;4994424;28;20057;-57
2023/01/13 06:30:59;;;;;;;18.15;2.92;;;;;;;10.65;75.41;100806.72;4995474;28;20047;-57
2023/01/13 06:33:28;;;;;;;;;;;;;;;10.70;74.54;100817.66;4996232;28;20053;-55
2023/01/13 06:35:59;;;;;;;13.35;2.88;;;;;;;10.46;75.77;100819.03;4989017;28;19952;-59
2023/01/13 06:38:28;;;;;;;22.95;5.05;;;;;;;10.64;75.04;100818.88;4962869;28;20054;-59
2023/01/13 06:40:55;;;;;;;24.33;3.47;;;;;;;10.42;74.57;100831.78;4978489;28;20042;-58
2023/01/13 06:43:22;;;;;;;19.20;3.17;;;;;;;10.40;74.89;100834.03;5010399;28;20139;-57
2023/01/13 06:45:51;;;;;;;16.02;3.08;;;;;;;10.31;75.04;100835.88;4995469;28;20055;-55
2023/01/13 06:48:26;;;;;;;18.33;3.33;;;;;;;10.43;75.13;100827.91;4982877;28;20073;-60
2023/01/13 06:50:53;;;;;;;16.15;2.75;;;;;;;10.49;74.00;100819.25;4992216;28;20054;-58
2023/01/13 06:53:21;;;;;;;24.45;3.33;;;;;;;10.73;74.51;100825.28;4981039;28;20046;-59
2023/01/13 06:55:48;;;;;;;13.20;2.90;;;;;;;10.42;73.60;100831.78;4985493;28;20054;-58
2023/01/13 06:58:16;;;;;;;21.08;4.45;;;;;;;10.39;73.45;100838.72;4990960;28;20053;-54
2023/01/13 07:00:43;;;;;;;22.25;4.50;;;;;;;10.79;73.30;100837.78;4984995;28;20057;-57
2023/01/13 07:03:13;;;;;;;22.20;3.97;;;;;;;10.73;73.67;100839.06;5014902;28;20054;-57
2023/01/13 07:05:42;;;;;;;20.87;3.97;;;;;;;11.12;72.44;100846.66;4989232;28;20043;-57
2023/01/13 07:08:09;;;;;;;20.15;2.45;;;;;;;10.75;73.12;100847.81;4980463;28;20298;-59
2023/01/13 07:10:37;;;;;;;17.63;3.03;;;;;;;10.73;73.26;100854.75;4983276;28;20054;-60
2023/01/13 07:15:52;;;;;;;12.93;2.70;;;;;;;10.74;73.27;100856.41;4975005;28;20042;-56
2023/01/13 07:18:20;;;;;;;17.98;3.45;;;;;;;10.78;73.22;100877.50;4999824;28;20049;-58
2023/01/13 07:20:55;;;;;;;18.30;2.97;;;;;;;10.91;73.36;100879.38;4997891;28;20061;-55
2023/01/13 07:23:24;;;;;;;22.35;2.83;;;;;;;10.93;74.30;100879.88;4999549;28;20042;-58
2023/01/13 07:25:54;;;;;;;15.32;2.95;;;;;;;10.49;74.19;100879.81;4986955;28;20062;-57
2023/01/13 07:28:21;;;;;;;15.07;2.53;;;;;;;10.43;75.33;100883.81;4965434;28;20058;-60
2023/01/13 07:30:49;;;;;;;14.88;2.67;;;;;;;10.54;75.22;100879.72;4990783;28;20047;-59
2023/01/13 07:33:17;;;;;;;17.55;2.72;;;;;;;10.63;75.98;100880.63;4977341;28;20987;-61
2023/01/13 07:35:45;;;;;;;18.23;3.53;;;;;;;10.75;76.38;100886.41;4978053;28;20051;-54
2023/01/13 07:38:13;;;;;;;21.92;2.78;;;;;;;10.50;76.07;100888.88;4979064;28;20054;-59
2023/01/13 07:40:40;;;;;;;27.40;3.05;;;;;;;11.93;87.81;100893.06;4982832;28;20626;-60
2023/01/13 07:45:58;;;;;;;16.52;2.80;;;;;;;12.80;70.41;100894.91;4984729;28;20049;-61
2023/01/13 07:48:26;;;;;;;19.58;3.70;;;;;;;11.75;71.30;100899.63;4978381;28;20051;-55
2023/01/13 07:50:54;;;;;;;22.67;4.72;;;;;;;11.49;72.29;100897.84;4976644;28;20050;-58
2023/01/13 07:53:23;;;;;;;18.52;3.25;;;;;;;11.38;72.57;100894.53;4992541;28;20529;-59
2023/01/13 07:55:55;;;;;;;22.58;3.03;;;;;;;11.11;73.80;100906.47;4966022;28;20045;-55
2023/01/13 07:58:24;;;;;;;15.98;3.08;;;;;;;10.90;74.68;100918.28;4989713;28;20760;-57
2023/01/13 08:00:52;;;;;;;23.35;3.63;;;;;;;10.94;75.24;100922.06;4983259;28;20057;-55
2023/01/13 08:03:20;;;;;;;16.98;2.95;;;;;;;11.07;75.84;100935.78;4990285;28;20050;-59
2023/01/13 08:05:47;;;;;;;18.80;3.33;;;;;;;10.99;74.81;100933.78;4957157;28;20063;-58
2023/01/13 08:08:15;;;;;;;20.08;2.88;;;;;;;10.92;74.14;100933.41;4969697;28;20081;-59
2023/01/13 08:10:43;;;;;;;21.23;3.25;;;;;;;10.73;75.83;100938.22;4979606;28;20046;-58
2023/01/13 08:13:17;;;;;;;19.40;3.10;;;;;;;10.74;75.90;100944.56;4977199;28;20091;-56
2023/01/13 08:15:47;;;;;;;24.58;3.05;;;;;;;10.76;76.52;100940.38;4995816;28;20046;-61
2023/01/13 08:18:16;;;;;;;22.10;3.90;;;;;;;10.70;76.54;100955.38;4971729;28;20055;-58
2023/01/13 08:20:44;;;;;;;16.63;3.70;;;;;;;10.57;76.75;100953.44;4985265;28;20050;-58
2023/01/13 08:23:11;;;;;;;16.73;3.47;;;;;;;10.60;76.69;100950.06;4974908;28;20302;-60
2023/01/13 08:25:39;;;;;;;19.42;3.72;;;;;;;10.57;76.54;100955.38;4992814;28;20073;-58
2023/01/13 08:28:06;;;;;;;19.70;3.80;;;;;;;10.79;76.83;100964.53;4977279;28;20066;-58
2023/01/13 08:30:41;;;;;;;20.50;3.63;;;;;;;10.29;77.36;100973.06;4976625;28;20042;-57
2023/01/13 08:33:11;;;;;;;17.75;3.03;;;;;;;10.30;78.39;100980.19;4988039;28;20415;-59
2023/01/13 08:35:39;;;;;;;24.73;3.28;;;;;;;10.53;78.24;100977.22;4975131;28;20077;-59
2023/01/13 08:38:07;;;;;;;16.15;2.83;;;;;;;11.47;81.06;100971.81;4954442;28;20043;-58
2023/01/13 08:40:35;;;;;;;20.17;3.88;;;;;;;11.96;73.84;100964.19;4957602;28;20132;-55
2023/01/13 08:43:02;;;;;;;17.67;2.88;;;;;;;12.24;75.09;100967.56;4976906;28;20058;-57
2023/01/13 08:45:30;;;;;;;15.75;3.30;;;;;;;12.83;73.08;100972.47;4975245;28;20534;-57
2023/01/13 08:47:57;;;;;;;18.95;4.03;;;;;;;12.76;70.33;100977.66;4983706;28;20070;-57
2023/01/13 08:50:24;;;;;;;19.88;3.67;;;;;;;12.85;73.57;100978.50;4960925;28;20070;-58
2023/01/13 08:52:51;;;;;;;17.80;3.70;;;;;;;12.98;71.10;100966.50;4982222;28;20510;-57
2023/01/13 08:55:19;;;;;;;21.88;3.15;;;;;;;12.88;70.45;100963.25;4976877;28;20062;-58
2023/01/13 08:57:46;;;;;;;17.45;3.50;;;;;;;13.20;70.52;100958.09;5000298;28;20057;-61
2023/01/13 09:00:15;;;;;;;19.85;2.80;;;;;;;13.07;68.76;100970.13;4970311;28;20058;-60
2023/01/13 09:02:43;;;;;;;18.88;3.30;;;;;;;13.24;68.63;100975.69;4976642;28;20422;-52
2023/01/13 09:05:11;;;;;;;19.92;4.10;;;;;;;13.01;67.24;100974.16;4975893;28;20514;-57
2023/01/13 09:07:38;;;;;;;13.25;3.30;;;;;;;13.13;67.50;100970.78;4991299;28;20050;-56
2023/01/13 09:10:07;;;;;;;16.52;3.97;;;;;;;13.13;68.78;100979.91;4971067;28;20046;-59
2023/01/13 09:15:21;;;;;;;18.67;3.97;;;;;;;13.13;66.47;100981.84;4973111;28;20065;-57
2023/01/13 09:17:48;;;;;;;20.60;3.67;;;;;;;13.09;68.81;100994.69;4989029;28;20047;-63
2023/01/13 09:20:15;;;;;;;19.52;3.58;;;;;;;13.48;67.20;100989.84;4973507;28;20047;-60
2023/01/13 09:22:43;;;;;;;16.30;3.03;;;;;;;13.53;66.58;100994.38;4977038;28;20133;-56
2023/01/13 09:25:11;;;;;;;20.45;3.72;;;;;;;13.71;66.17;101000.72;4984999;28;20046;-55
2023/01/13 09:27:38;;;;;;;20.77;3.20;;;;;;;12.72;67.32;101009.06;4976581;28;20069;-54
2023/01/13 09:30:06;;;;;;;20.40;3.60;;;;;;;12.83;66.59;101005.66;4969162;28;20046;-58
2023/01/13 09:32:34;;;;;;;20.17;3.40;;;;;;;12.99;66.11;101009.59;4985111;28;20058;-57
2023/01/13 09:35:02;;;;;;;14.43;3.40;;;;;;;13.29;66.66;100996.81;5006183;28;20062;-53
2023/01/13 09:37:38;;;;;;;17.83;3.30;;;;;;;13.57;66.22;100993.41;4996394;28;20046;-54
2023/01/13 09:40:17;;;;;;;15.55;4.28;;;;;;;13.14;63.54;101013.91;4976354;28;20410;-55
2023/01/13 09:45:44;;;;;;;21.85;3.67;;;;;;;12.22;66.32;101025.91;4960729;28;20444;-56
2023/01/13 09:48:31;;;;;;;17.40;3.03;;;;;;;12.39;70.02;101017.72;4989995;28;20649;-55
2023/01/13 09:51:08;;;;;;;18.95;3.60;;;;;;;12.30;66.60;101029.84;4988388;28;20055;-55
2023/01/13 09:53:38;;;;;;;13.77;2.65;;;;;;;12.77;67.06;101034.59;4958215;28;20051;-56
2023/01/13 09:56:09;;;;;;;20.75;3.40;;;;;;;11.72;66.66;101048.44;4977130;28;20069;-57
2023/01/13 09:58:36;;;;;;;15.52;3.10;;;;;;;11.71;68.69;101046.84;4976242;28;20046;-56
2023/01/13 10:01:10;;;;;;;18.08;2.78;;;;;;;12.69;68.88;101046.44;4977040;28;20107;-59
2023/01/13 10:03:37;;;;;;;20.95;3.38;;;;;;;12.96;66.14;101054.50;4999646;28;20419;-61
2023/01/13 10:06:15;;;;;;;17.10;2.97;;;;;;;12.44;63.69;101053.50;4960060;28;20062;-56
2023/01/13 10:08:44;;;;;;;17.05;3.17;;;;;;;11.89;67.76;101052.16;4987643;28;20061;-51
2023/01/13 10:14:19;;;;;;;16.75;3.05;;;;;;;12.22;68.94;101056.28;4972687;28;20081;-57
2023/01/13 10:17:07;;;;;;;22.83;3.55;;;;;;;11.80;66.44;101056.00;4992610;28;20049;-57
2023/01/13 10:19:43;;;;;;;10.52;2.58;;;;;;;11.71;68.32;101055.13;4958266;28;20581;-54
2023/01/13 10:22:34;;;;;;;17.13;3.42;;;;;;;11.91;67.67;101057.38;4957118;28;20050;-58
2023/01/13 10:25:19;;;;;;;15.85;3.28;;;;;;;12.55;68.23;101062.31;4976056;28;20642;-60
2023/01/13 10:27:49;;;;;;;19.00;3.17;;;;;;;12.12;65.15;101064.84;4954026;28;20380;-59
2023/01/13 10:30:16;;;;;;;16.77;3.08;;;;;;;12.23;67.21;101070.91;4973117;28;20498;-62
2023/01/13 10:33:00;;;;;;;16.40;2.55;;;;;;;12.34;67.71;101072.28;4971055;28;20399;-56
2023/01/13 10:35:54;;;;;;;18.38;3.15;;;;;;;12.20;66.70;101060.50;4967406;28;20054;-56
2023/01/13 10:38:27;;;;;;;15.80;2.75;;;;;;;12.85;66.20;101060.66;4964513;28;20051;-57
2023/01/13 10:41:00;;;;;;;15.13;2.30;;;;;;;12.81;66.23;101063.25;4977979;28;20038;-56
2023/01/13 10:43:29;;;;;;;15.52;2.83;;;;;;;12.75;66.04;101063.69;4975007;28;20050;-54
2023/01/13 10:46:05;;;;;;;19.13;2.78;;;;;;;12.73;64.46;101079.75;4978549;28;20054;-62
2023/01/13 10:48:40;;;;;;;12.70;2.42;;;;;;;12.20;64.21;101085.34;4963522;28;20087;-60
2023/01/13 10:51:13;;;;;;;17.40;3.17;;;;;;;11.94;67.48;101082.41;4976637;28;20069;-59
2023/01/13 10:53:52;;;;;;;11.20;2.10;;;;;;;12.39;68.24;101086.78;4988470;28;20684;-55
2023/01/13 10:56:21;;;;;;;11.13;2.80;;;;;;;12.56;67.07;101091.56;4956149;28;20042;-54
2023/01/13 10:58:48;;;;;;;10.98;2.90;;;;;;;13.15;66.69;101104.03;4978422;28;20062;-57
2023/01/13 11:01:24;;;;;;;14.65;2.60;;;;;;;12.17;67.29;101114.41;4954613;28;20053;-55
2023/01/13 11:03:53;;;;;;;15.18;2.53;;;;;;;13.08;67.21;101129.41;4966020;28;20047;-58
2023/01/13 11:06:26;;;;;;;10.75;2.40;;;;;;;13.32;65.14;101113.19;4974399;28;20135;-57
2023/01/13 11:08:56;;;;;;;14.70;3.20;;;;;;;12.86;66.82;101125.84;4983137;28;20061;-55
2023/01/13 11:11:38;;;;;;;14.13;3.38;;;;;;;12.38;66.86;101140.38;4967877;28;20375;-58
2023/01/13 11:14:32;;;;;;;15.32;2.42;;;;;;;12.75;67.41;101124.50;4972034;28;20042;-56
2023/01/13 11:17:21;;;;;;;16.75;3.30;;;;;;;13.04;67.50;101128.41;4992227;28;20051;-57
2023/01/13 11:20:13;;;;;;;15.93;3.78;;;;;;;12.83;65.53;101129.28;4985253;28;20065;-60
2023/01/13 11:22:54;;;;;;;15.48;2.92;;;;;;;12.39;67.15;101132.94;4977213;28;20135;-56
2023/01/13 11:25:40;;;;;;;13.85;3.28;;;;;;;12.87;68.44;101125.53;4958458;28;20415;-63
2023/01/13 11:28:15;;;;;;;16.05;3.08;;;;;;;13.59;65.20;101131.47;4970405;28;20121;-55
2023/01/13 11:30:51;;;;;;;12.63;2.67;;;;;;;13.55;62.60;101131.31;4989263;28;20049;-56
2023/01/13 11:33:29;;;;;;;20.67;3.58;;;;;;;13.20;62.93;101126.81;4959231;28;20059;-57
2023/01/13 11:36:20;;;;;;;23.40;5.28;;;;;;;12.43;65.18;101139.44;4991556;28;20063;-58
2023/01/13 11:38:53;;;;;;;13.38;3.65;;;;;;;13.06;63.91;101134.44;4976043;28;20479;-56
2023/01/13 11:41:39;;;;;;;15.75;4.82;;;;;;;12.77;62.96;101138.81;4955840;28;20055;-57
2023/01/13 11:44:21;;;;;;;20.38;5.90;;;;;;;12.79;65.06;101142.91;4977836;28;20058;-57
2023/01/13 11:46:52;;;;;;;25.67;7.22;;;;;;;12.37;63.18;101158.09;4995391;28;20058;-55
2023/01/13 11:49:26;;;;;;;21.10;5.75;;;;;;;12.45;65.17;101160.09;4976547;28;20051;-55
2023/01/13 11:51:57;;;;;;;18.30;6.13;;;;;;;12.33;64.51;101159.03;4994091;28;20054;-53
2023/01/13 11:54:49;;;;;;;39.10;13.07;;;;;;;12.21;64.79;101153.25;4974718;28;20066;-58
2023/01/13 11:57:31;;;;;;;30.50;13.80;;;;;;;12.44;66.34;101157.66;4979329;28;20061;-59
2023/01/13 12:00:17;;;;;;;21.90;8.35;;;;;;;12.62;61.58;101162.16;4987193;28;20047;-56
2023/01/13 12:03:00;;;;;;;28.80;12.10;;;;;;;12.38;62.55;101168.00;4960532;28;20059;-59
2023/01/13 12:05:36;;;;;;;19.05;6.90;;;;;;;12.48;62.24;101166.13;4976863;28;20149;-58
2023/01/13 12:08:41;;;;;;;25.02;6.28;;;;;;;12.24;61.45;101155.38;4977372;28;20050;-57
2023/01/13 12:11:23;;;;;;;20.35;4.22;;;;;;;12.39;59.35;101161.38;4971686;28;20407;-56
2023/01/13 12:14:12;;;;;;;21.00;6.95;;;;;;;11.92;60.42;101142.66;4984283;28;20062;-59
2023/01/13 12:16:47;;;;;;;29.35;10.40;;;;;;;11.63;62.26;101150.44;4992956;28;20058;-59
2023/01/13 12:19:24;;;;;;;28.20;9.52;;;;;;;12.44;61.23;101177.00;4977218;28;20058;-56